Pagina principală
METAR-TAF:

METAR-TAF

Aeroporturi :

McAlester, Oklahoma, Statele Unite ale Americii

Latitudine: 34-52-56N, longitudine: 095-46-59W, elevație: 234 m

Observații meteo curente

Raportul a fost făcut în urmă cu 1 oră și 15 de minute, la 02:53 UTC
Vânt 4 kt de la Est/Sud-est
Temperatură 22°C
Umiditate 78%
Presiune 1013 hPa
Vizibilitate: 16.1 km
Nori puțini la o înălțime de 7500 picior
Nori puțini la o înălțime de 12000 picior

METAR: KMLC 190253Z AUTO 12004KT 10SM FEW075 FEW120 22/18 A2992 RMK AO2 SLP122 T02170178 53016

Ora: 23:08 (04:08 UTC)

Prognoză

Raportul a fost făcut în urmă cu 4 ore și 47 de minute, la 23:21 UTC
Prognoză valabilă de la 19 ora 00 UTC la 19 ora 24 UTC
Vânt kt de la Nord
Vizibilitate: 10 km
Cer senin
De la 19 ora 1500 UTC
Vânt 10 kt de la Sud/Sud-est
Vizibilitate: 10 km
Nori puțini la o înălțime de 5000 picior

TAF: KMLC 182321Z 1900/1924 00000KT P6SM SKC FM191500 16010KT P6SM FEW050

Observații și prognoze meteo pentru peste 4.000 de aeroporturi (rapoarte METAR și TAF).

Stațiile disponibile sunt reprezentate pe hartă prin puncte galbene și roșii.

Țineți indicatorul mouse-ului pe punctul dorit pentru a vedea denumirea stației.

Apoi, faceți clic pentru a vedea observațiile și prognozele meteorologice.

Pentru a schimba harta: Pentru mărire, faceți clic pe butoanele verzi cu cruce neagră; pentru micșorare, pe butonul verde cu o liniuță; pentru hărți învecinate, pe săgețile verzi.


METAR-TAF: